Time;durP1;ratioP1;P1;durP2;ratioP2;P2;SDS_P1;SDS_P2;PMS_P1;PMS_P2;Temp;Humidity;BMP_temperature;BMP_pressure;BME280_temperature;BME280_humidity;BME280_pressure;Samples;Min_cycle;Max_cycle;Signal;HPM_P1;HPM_P2
2021/03/17 00:10:55;;;;;;;46.18;25.10;;;;;;;2.45;100.00;99774.83;1773468;81;21112;-88
2021/03/17 00:21:54;;;;;;;45.40;23.80;;;;;;;2.35;100.00;99770.66;1773437;80;21135;-88
2021/03/17 00:25:17;;;;;;;42.10;22.73;;;;;;;2.32;100.00;99775.95;1773419;80;21127;-88
2021/03/17 00:31:50;;;;;;;41.05;22.48;;;;;;;2.32;100.00;99779.81;1773401;80;21175;-89
2021/03/17 00:46:26;;;;;;;48.00;24.07;;;;;;;2.31;100.00;99762.73;1804339;79;21198;-89
2021/03/17 00:49:24;;;;;;;56.70;25.70;;;;;;;2.32;100.00;99767.78;1799701;79;21175;-89
2021/03/17 00:55:53;;;;;;;42.93;24.07;;;;;;;2.34;100.00;99759.53;1804383;79;21377;-89
2021/03/17 00:58:32;;;;;;;48.90;24.50;;;;;;;2.35;100.00;99757.81;1799938;79;21120;-89
2021/03/17 01:01:30;;;;;;;50.10;24.72;;;;;;;2.35;100.00;99760.38;1804493;79;21464;-90
2021/03/17 01:11:28;;;;;;;48.68;24.72;;;;;;;2.38;100.00;99753.77;1804321;79;21149;-89
2021/03/17 01:13:58;;;;;;;49.53;24.70;;;;;;;2.38;100.00;99759.38;1804379;79;21111;-89
2021/03/17 01:16:55;;;;;;;43.17;23.55;;;;;;;2.39;100.00;99758.00;1804332;79;21369;-89
2021/03/17 01:19:27;;;;;;;43.20;24.70;;;;;;;2.40;100.00;99762.23;1804340;79;21532;-89
2021/03/17 01:29:50;;;;;;;44.98;24.15;;;;;;;2.43;100.00;99754.37;1804382;79;21183;-89
2021/03/17 01:32:49;;;;;;;39.10;21.33;;;;;;;2.43;100.00;99745.38;1804348;79;21175;-89
2021/03/17 01:35:18;;;;;;;54.10;25.55;;;;;;;2.42;100.00;99752.70;1804287;79;21130;-89
2021/03/17 01:37:53;;;;;;;49.55;25.65;;;;;;;2.43;100.00;99750.52;1800725;79;21159;-89
2021/03/17 01:40:28;;;;;;;48.48;24.67;;;;;;;2.43;100.00;99747.95;1798651;79;21144;-89
2021/03/17 01:50:55;;;;;;;47.40;24.90;;;;;;;2.46;100.00;99743.09;1798626;79;21188;-89
2021/03/17 01:53:59;;;;;;;47.25;25.10;;;;;;;2.45;100.00;99738.39;1749235;80;21543;-89
2021/03/17 01:56:27;;;;;;;49.38;25.02;;;;;;;2.46;100.00;99742.62;1736719;82;21179;-90
2021/03/17 01:58:56;;;;;;;42.80;24.12;;;;;;;2.47;100.00;99737.03;1744332;81;21166;-89
2021/03/17 02:01:28;;;;;;;50.03;25.40;;;;;;;2.46;100.00;99741.33;1760698;81;21369;-89
2021/03/17 02:04:26;;;;;;;45.00;24.92;;;;;;;2.49;100.00;99737.32;1754311;81;21135;-90
2021/03/17 02:07:22;;;;;;;51.92;25.88;;;;;;;2.49;100.00;99736.03;1745148;82;21132;-90
2021/03/17 02:14:23;;;;;;;42.90;24.65;;;;;;;2.49;100.00;99721.90;1745072;82;21136;-89
2021/03/17 02:17:13;;;;;;;45.73;24.23;;;;;;;2.48;100.00;99723.28;1732122;82;22382;-88
2021/03/17 02:20:08;;;;;;;51.85;26.20;;;;;;;2.46;100.00;99723.34;1740899;81;21606;-89
2021/03/17 02:22:50;;;;;;;41.37;24.37;;;;;;;2.45;100.00;99717.83;1763308;81;21191;-89
2021/03/17 02:26:04;;;;;;;55.08;24.25;;;;;;;2.43;100.00;99717.11;1763184;81;21124;-89
2021/03/17 02:29:05;;;;;;;45.65;23.15;;;;;;;2.44;100.00;99716.64;1763306;80;21073;-89
2021/03/17 02:31:59;;;;;;;50.70;25.00;;;;;;;2.45;100.00;99719.59;1769664;81;22249;-89
2021/03/17 02:34:38;;;;;;;46.35;24.82;;;;;;;2.46;100.00;99724.63;1760499;81;21410;-89
2021/03/17 02:37:12;;;;;;;52.20;27.13;;;;;;;2.48;100.00;99720.23;1757419;81;21171;-89
2021/03/17 02:39:54;;;;;;;51.45;25.15;;;;;;;2.48;100.00;99720.23;1746037;81;21118;-88
2021/03/17 02:43:11;;;;;;;47.53;25.23;;;;;;;2.49;100.00;99718.05;1755326;81;21054;-90
2021/03/17 02:45:59;;;;;;;46.98;23.10;;;;;;;2.50;100.00;99717.58;1780589;80;21211;-89
2021/03/17 02:48:39;;;;;;;43.35;23.60;;;;;;;2.49;100.00;99711.62;1781821;80;21119;-89
2021/03/17 02:51:39;;;;;;;42.83;24.47;;;;;;;2.50;100.00;99716.29;1776708;80;21156;-90
2021/03/17 02:54:18;;;;;;;40.20;22.85;;;;;;;2.52;100.00;99719.14;1781946;80;21147;-89
2021/03/17 02:57:19;;;;;;;57.03;26.55;;;;;;;2.55;100.00;99719.89;1781912;80;21143;-93
2021/03/17 03:03:19;;;;;;;51.92;25.68;;;;;;;2.52;100.00;99719.61;1782006;80;21159;-90
2021/03/17 03:06:16;;;;;;;40.25;23.02;;;;;;;2.52;100.00;99716.57;1781994;80;21159;-89
2021/03/17 03:13:10;;;;;;;42.50;25.32;;;;;;;2.52;100.00;99720.42;1751053;82;21151;-91
2021/03/17 03:16:13;;;;;;;47.35;25.92;;;;;;;2.50;100.00;99718.42;1751138;82;21187;-88
2021/03/17 03:18:46;;;;;;;43.05;24.50;;;;;;;2.50;100.00;99726.56;1750904;82;21163;-88
2021/03/17 03:21:21;;;;;;;37.98;21.73;;;;;;;2.51;100.00;99726.95;1750998;82;21174;-88
2021/03/17 03:24:18;;;;;;;54.08;24.45;;;;;;;2.50;100.00;99718.42;1770332;80;21087;-88
2021/03/17 03:27:14;;;;;;;41.70;23.60;;;;;;;2.51;100.00;99715.38;1781891;80;21139;-88
2021/03/17 03:29:50;;;;;;;40.58;24.07;;;;;;;2.51;100.00;99718.80;1781986;80;21193;-88
2021/03/17 03:36:42;;;;;;;45.08;24.87;;;;;;;2.53;100.00;99719.52;1782122;80;21535;-88
2021/03/17 03:43:35;;;;;;;39.27;22.07;;;;;;;2.55;100.00;99717.32;1782082;80;21544;-89
2021/03/17 03:46:33;;;;;;;47.58;26.55;;;;;;;2.53;100.00;99713.56;1782092;80;22281;-89
2021/03/17 03:54:03;;;;;;;52.15;26.15;;;;;;;2.51;100.00;99723.94;1782067;80;21076;-88
2021/03/17 03:57:02;;;;;;;44.53;25.48;;;;;;;2.50;100.00;99726.13;1782208;80;21571;-89
2021/03/17 04:04:04;;;;;;;45.38;26.17;;;;;;;2.49;100.00;99723.62;1782043;80;21527;-89
2021/03/17 04:14:26;;;;;;;49.08;26.23;;;;;;;2.50;100.00;99718.86;1751149;82;21549;-89
2021/03/17 04:17:26;;;;;;;55.90;27.98;;;;;;;2.49;100.00;99721.05;1751155;82;21154;-90
2021/03/17 04:20:25;;;;;;;44.35;26.15;;;;;;;2.47;100.00;99716.01;1749690;82;21386;-89
2021/03/17 04:23:25;;;;;;;41.35;25.45;;;;;;;2.47;100.00;99717.77;1724384;82;21158;-89
2021/03/17 04:30:19;;;;;;;45.15;25.68;;;;;;;2.50;100.00;99715.85;1751063;82;21179;-89
2021/03/17 04:37:16;;;;;;;37.45;23.75;;;;;;;2.51;100.00;99712.37;1751076;82;21563;-90
2021/03/17 04:40:14;;;;;;;42.10;25.65;;;;;;;2.51;100.00;99709.80;1751190;82;28200;-89
2021/03/17 04:42:44;;;;;;;41.88;24.50;;;;;;;2.51;100.00;99705.95;1750962;82;21171;-89
2021/03/17 04:45:17;;;;;;;41.98;24.32;;;;;;;2.53;100.00;99705.84;1759301;80;21486;-87
2021/03/17 04:47:47;;;;;;;42.45;24.90;;;;;;;2.55;100.00;99708.33;1750682;82;21093;-87
2021/03/17 04:50:18;;;;;;;39.53;24.30;;;;;;;2.56;100.00;99707.41;1757339;80;22230;-86
2021/03/17 04:52:50;;;;;;;38.73;23.18;;;;;;;2.58;100.00;99701.73;1781284;80;21634;-87
2021/03/17 04:55:19;;;;;;;36.28;22.45;;;;;;;2.61;100.00;99701.55;1781548;80;21147;-86
2021/03/17 04:57:50;;;;;;;32.05;19.73;;;;;;;2.64;100.00;99706.52;1781449;80;21123;-87
2021/03/17 05:00:24;;;;;;;37.00;21.87;;;;;;;2.69;100.00;99712.22;1781507;80;21163;-86
2021/03/17 05:02:58;;;;;;;35.25;21.07;;;;;;;2.71;100.00;99703.97;1781546;80;21371;-87
2021/03/17 05:05:33;;;;;;;32.48;21.10;;;;;;;2.73;100.00;99712.88;1781205;80;21171;-86
2021/03/17 05:08:04;;;;;;;32.42;19.10;;;;;;;2.75;100.00;99714.91;1781384;80;21112;-86
2021/03/17 05:10:36;;;;;;;31.82;19.85;;;;;;;2.76;100.00;99711.42;1778557;80;21495;-87
2021/03/17 05:13:09;;;;;;;35.17;19.82;;;;;;;2.76;100.00;99717.41;1781597;80;21504;-87
2021/03/17 05:15:38;;;;;;;31.07;19.85;;;;;;;2.78;100.00;99720.70;1781337;80;21245;-86
2021/03/17 05:18:10;;;;;;;28.73;19.32;;;;;;;2.85;100.00;99721.19;1781505;80;21587;-87
2021/03/17 05:20:44;;;;;;;25.72;17.35;;;;;;;2.87;100.00;99718.52;1781525;80;21107;-87
2021/03/17 05:23:41;;;;;;;35.30;20.90;;;;;;;2.86;100.00;99720.28;1781353;80;21155;-89
2021/03/17 05:26:14;;;;;;;36.42;19.27;;;;;;;2.84;100.00;99721.63;1781956;80;21127;-87
2021/03/17 05:29:12;;;;;;;33.13;20.45;;;;;;;2.83;100.00;99720.44;1782033;80;21527;-87
2021/03/17 05:35:44;;;;;;;29.40;18.85;;;;;;;2.83;100.00;99729.00;1781941;80;21545;-87
2021/03/17 05:38:47;;;;;;;23.60;17.12;;;;;;;2.84;100.00;99730.62;1778123;80;21570;-86
2021/03/17 05:41:45;;;;;;;29.35;17.67;;;;;;;2.84;100.00;99731.92;1747684;81;21066;-86
2021/03/17 05:44:48;;;;;;;31.82;19.27;;;;;;;2.86;100.00;99732.30;1753446;80;22294;-89
2021/03/17 05:51:08;;;;;;;28.95;18.35;;;;;;;3.26;100.00;99735.13;1770926;80;21179;-87
2021/03/17 06:01:32;;;;;;;30.77;16.90;;;;;;;3.72;100.00;99740.58;1762981;81;21136;-87
2021/03/17 06:08:24;;;;;;;29.20;17.42;;;;;;;3.90;100.00;99745.06;1740419;82;21810;-87
2021/03/17 06:11:21;;;;;;;28.70;17.55;;;;;;;3.93;100.00;99746.98;1722139;82;21285;-87
2021/03/17 06:18:01;;;;;;;26.52;16.48;;;;;;;4.04;100.00;99739.91;1741202;81;21481;-87
2021/03/17 06:20:37;;;;;;;25.77;17.50;;;;;;;4.03;100.00;99745.14;1742299;81;21219;-87
2021/03/17 06:23:06;;;;;;;39.40;18.27;;;;;;;4.01;100.00;99740.09;1744711;80;21184;-88
2021/03/17 06:25:34;;;;;;;39.48;20.88;;;;;;;3.98;100.00;99743.31;1770785;81;21183;-87
2021/03/17 06:28:04;;;;;;;27.73;19.65;;;;;;;3.99;100.00;99739.83;1770528;81;21147;-86
2021/03/17 06:30:34;;;;;;;37.67;19.45;;;;;;;3.97;100.00;99742.48;1770360;81;22335;-86
2021/03/17 06:33:02;;;;;;;38.55;19.17;;;;;;;3.91;100.00;99741.56;1770081;81;21132;-87
2021/03/17 06:35:32;;;;;;;29.87;20.40;;;;;;;3.88;100.00;99743.06;1770296;81;21160;-88
2021/03/17 06:38:01;;;;;;;32.63;20.27;;;;;;;3.99;100.00;99747.55;1770181;81;21535;-86
2021/03/17 06:40:35;;;;;;;30.45;19.70;;;;;;;3.99;100.00;99747.55;1770670;81;21120;-87
2021/03/17 06:51:13;;;;;;;31.02;21.48;;;;;;;4.02;100.00;99746.05;1764496;81;21175;-87
2021/03/17 06:54:11;;;;;;;29.70;19.10;;;;;;;4.09;100.00;99746.05;1766583;81;21476;-86
2021/03/17 06:57:07;;;;;;;34.35;18.57;;;;;;;4.12;100.00;99750.20;1766527;81;21108;-86
2021/03/17 07:04:30;;;;;;;29.75;18.67;;;;;;;4.23;100.00;99752.92;1766421;81;21132;-87
2021/03/17 07:07:30;;;;;;;30.97;19.25;;;;;;;4.23;100.00;99747.77;1665344;84;21155;-86
2021/03/17 07:10:00;;;;;;;28.95;19.10;;;;;;;4.21;100.00;99744.45;1707461;83;21180;-86
2021/03/17 07:12:31;;;;;;;27.77;19.12;;;;;;;4.21;100.00;99747.88;1707475;82;21455;-87
2021/03/17 07:15:08;;;;;;;32.23;21.68;;;;;;;4.25;100.00;99748.51;1711492;83;21380;-87
2021/03/17 07:18:18;;;;;;;29.05;19.20;;;;;;;4.32;100.00;99746.38;1715343;83;21191;-87
2021/03/17 07:25:16;;;;;;;26.77;19.35;;;;;;;4.28;100.00;99753.48;1719858;83;21171;-86
2021/03/17 07:28:13;;;;;;;37.73;19.52;;;;;;;4.28;100.00;99753.48;1720005;83;21063;-87
2021/03/17 07:30:40;;;;;;;25.82;18.95;;;;;;;4.29;100.00;99749.14;1720135;83;22339;-86
2021/03/17 07:43:36;;;;;;;32.03;20.25;;;;;;;4.49;100.00;99747.88;1720075;83;21211;-86
2021/03/17 07:46:12;;;;;;;30.45;19.75;;;;;;;4.49;100.00;99747.88;1714757;83;22237;-86
2021/03/17 07:48:43;;;;;;;28.15;20.20;;;;;;;4.49;100.00;99744.02;1678898;84;21501;-87
2021/03/17 07:51:19;;;;;;;31.05;19.80;;;;;;;4.51;100.00;99747.33;1740567;81;21111;-86
2021/03/17 08:01:51;;;;;;;30.43;19.23;;;;;;;4.56;100.00;99749.14;1740466;82;21477;-86
2021/03/17 08:04:48;;;;;;;31.33;19.00;;;;;;;4.61;100.00;99746.27;1740118;82;21182;-86
2021/03/17 08:07:18;;;;;;;29.77;20.27;;;;;;;4.60;100.00;99749.33;1740447;82;21132;-86
2021/03/17 08:17:40;;;;;;;26.75;18.42;;;;;;;4.71;100.00;99732.69;1740552;82;22132;-86
2021/03/17 08:20:23;;;;;;;27.60;18.23;;;;;;;4.66;100.00;99738.61;1740411;82;21452;-86
2021/03/17 08:22:53;;;;;;;25.92;18.35;;;;;;;4.67;100.00;99741.55;1740471;82;21115;-86
2021/03/17 08:25:42;;;;;;;26.50;17.67;;;;;;;4.68;100.00;99727.73;1740352;82;21512;-86
2021/03/17 08:28:45;;;;;;;26.37;18.52;;;;;;;4.69;100.00;99729.37;1740428;82;21136;-86
2021/03/17 08:31:38;;;;;;;28.40;18.27;;;;;;;4.67;100.00;99730.40;1740289;82;22260;-86
2021/03/17 08:34:26;;;;;;;27.15;18.95;;;;;;;4.58;100.00;99730.06;1740282;82;21683;-86
2021/03/17 08:40:52;;;;;;;25.05;18.07;;;;;;;4.54;100.00;99732.94;1740314;82;21051;-86
2021/03/17 08:43:33;;;;;;;22.93;16.45;;;;;;;4.61;100.00;99730.33;1740209;82;21048;-86
2021/03/17 08:46:17;;;;;;;24.50;16.15;;;;;;;4.68;100.00;99729.03;1738136;82;22346;-86
2021/03/17 08:49:29;;;;;;;20.60;14.75;;;;;;;4.68;100.00;99729.03;1737260;82;21179;-86
2021/03/17 08:52:15;;;;;;;23.93;16.53;;;;;;;4.74;100.00;99729.92;1740293;82;21123;-86
2021/03/17 08:54:57;;;;;;;24.43;16.85;;;;;;;4.75;100.00;99737.18;1740254;82;21519;-86
2021/03/17 08:58:01;;;;;;;26.80;16.17;;;;;;;4.74;100.00;99739.39;1739344;82;21203;-86
2021/03/17 09:03:43;;;;;;;20.50;16.10;;;;;;;4.86;100.00;99736.47;1809833;78;23458;-86
2021/03/17 09:06:24;;;;;;;28.05;18.23;;;;;;;4.86;100.00;99737.32;1847432;77;21162;-87
2021/03/17 09:08:58;;;;;;;28.10;19.85;;;;;;;4.88;100.00;99729.47;1818939;78;21346;-87
2021/03/17 09:11:58;;;;;;;23.22;16.55;;;;;;;4.88;100.00;99744.95;1822551;78;21148;-86
2021/03/17 09:14:32;;;;;;;31.12;19.75;;;;;;;4.92;100.00;99749.00;1822619;78;21115;-86
2021/03/17 09:17:16;;;;;;;27.02;18.35;;;;;;;4.92;100.00;99749.00;1825502;77;21175;-86
2021/03/17 09:19:59;;;;;;;25.25;17.85;;;;;;;4.96;100.00;99745.75;1843548;77;21174;-86
2021/03/17 09:22:50;;;;;;;32.28;19.62;;;;;;;5.02;100.00;99746.16;1852338;77;22251;-87
2021/03/17 09:25:33;;;;;;;24.75;17.95;;;;;;;5.12;100.00;99754.14;1818713;78;20948;-87
2021/03/17 09:28:12;;;;;;;30.27;17.75;;;;;;;5.18;100.00;99757.59;1822593;78;20933;-86
2021/03/17 09:30:49;;;;;;;28.52;17.82;;;;;;;5.17;100.00;99755.94;1817598;77;21584;-87
2021/03/17 09:33:29;;;;;;;26.20;17.10;;;;;;;5.20;100.00;99748.01;1784047;79;21143;-87
2021/03/17 09:36:27;;;;;;;28.42;17.55;;;;;;;5.26;100.00;99750.62;1802574;78;22280;-87
2021/03/17 09:38:57;;;;;;;29.02;18.00;;;;;;;5.33;100.00;99754.92;1802933;78;21158;-84
2021/03/17 09:45:26;;;;;;;30.08;16.57;;;;;;;5.40;100.00;99757.92;1804719;78;21626;-86
2021/03/17 09:48:22;;;;;;;22.82;16.12;;;;;;;5.48;100.00;99759.05;1799591;78;21129;-86
2021/03/17 09:51:21;;;;;;;22.55;14.58;;;;;;;5.55;100.00;99762.05;1830965;77;21959;-85
2021/03/17 09:58:13;;;;;;;33.38;18.67;;;;;;;5.75;100.00;99759.85;1823812;78;21389;-86
2021/03/17 10:00:48;;;;;;;24.05;16.30;;;;;;;5.81;100.00;99763.30;1823886;78;21497;-84
2021/03/17 10:07:41;;;;;;;23.27;15.28;;;;;;;5.83;100.00;99761.44;1805480;79;20993;-84
2021/03/17 10:14:37;;;;;;;25.52;14.70;;;;;;;5.83;100.00;99751.95;1806478;79;21127;-84
2021/03/17 10:25:26;;;;;;;23.15;14.75;;;;;;;5.94;100.00;99742.61;1813184;78;21178;-85
2021/03/17 10:28:05;;;;;;;22.00;14.53;;;;;;;5.99;100.00;99749.63;1796245;78;21592;-85
2021/03/17 10:31:00;;;;;;;28.98;18.20;;;;;;;6.07;100.00;99747.33;1771172;81;21124;-85
2021/03/17 10:37:52;;;;;;;28.83;19.00;;;;;;;6.17;100.00;99744.10;1802862;79;21088;-84
2021/03/17 10:40:48;;;;;;;29.65;17.90;;;;;;;6.20;100.00;99730.48;1802813;79;21367;-84
2021/03/17 10:47:44;;;;;;;31.30;19.00;;;;;;;6.40;100.00;99730.36;1789065;79;21163;-86
2021/03/17 10:50:43;;;;;;;31.97;21.05;;;;;;;6.48;100.00;99724.63;1788085;79;21536;-86
2021/03/17 10:53:27;;;;;;;38.02;21.33;;;;;;;6.51;100.00;99731.33;1802781;79;21445;-90
2021/03/17 10:56:30;;;;;;;37.95;21.82;;;;;;;6.54;100.00;99735.00;1767430;79;21186;-86
2021/03/17 11:03:31;;;;;;;36.13;23.55;;;;;;;6.70;100.00;99727.77;1794184;78;21508;-85
2021/03/17 11:06:20;;;;;;;37.53;21.87;;;;;;;6.88;100.00;99732.06;1790490;79;21124;-86
2021/03/17 11:12:55;;;;;;;31.55;21.50;;;;;;;7.07;100.00;99731.52;1787455;79;21127;-87
2021/03/17 11:15:27;;;;;;;35.78;23.27;;;;;;;7.13;100.00;99728.14;1807755;79;21119;-85
2021/03/17 11:22:33;;;;;;;30.90;20.80;;;;;;;7.19;100.00;99728.48;1796454;79;21135;-87
2021/03/17 11:25:07;;;;;;;34.13;23.98;;;;;;;7.28;100.00;99732.16;1799599;78;21191;-85
2021/03/17 11:32:09;;;;;;;39.53;26.90;;;;;;;7.41;100.00;99734.16;1775758;80;21140;-85
2021/03/17 11:38:40;;;;;;;43.45;26.77;;;;;;;7.57;100.00;99727.81;1789319;79;21393;-86
2021/03/17 11:41:40;;;;;;;40.35;27.48;;;;;;;7.54;100.00;99736.65;1786528;79;21149;-87
2021/03/17 11:55:54;;;;;;;41.25;29.02;;;;;;;7.51;100.00;99723.92;1776160;78;21307;-86
2021/03/17 11:58:26;;;;;;;40.73;29.02;;;;;;;7.56;100.00;99723.11;1774616;80;21183;-87
2021/03/17 12:01:22;;;;;;;40.67;27.82;;;;;;;7.55;100.00;99727.94;1781476;80;21511;-86
2021/03/17 12:07:41;;;;;;;40.92;29.10;;;;;;;7.53;100.00;99727.70;1807951;79;21103;-86
2021/03/17 12:10:15;;;;;;;39.60;28.00;;;;;;;7.53;100.00;99723.34;1774860;79;21155;-86
2021/03/17 12:21:30;;;;;;;40.75;28.15;;;;;;;7.72;100.00;99724.03;1815967;79;21139;-86
2021/03/17 12:24:33;;;;;;;38.08;26.85;;;;;;;7.86;100.00;99721.67;1790347;79;21177;-86
2021/03/17 12:31:29;;;;;;;51.33;32.15;;;;;;;7.88;100.00;99721.55;1809133;79;21592;-86
2021/03/17 12:34:29;;;;;;;48.45;29.85;;;;;;;7.84;100.00;99720.97;1809297;79;22122;-87
2021/03/17 12:44:26;;;;;;;48.23;30.45;;;;;;;7.71;100.00;99724.97;1809238;78;21192;-87
2021/03/17 12:46:57;;;;;;;44.85;28.38;;;;;;;7.68;100.00;99723.94;1816120;79;21143;-86
2021/03/17 12:49:29;;;;;;;40.23;26.97;;;;;;;7.68;100.00;99723.09;1778704;79;22237;-87
2021/03/17 12:52:05;;;;;;;37.73;27.58;;;;;;;7.65;100.00;99718.16;1764936;79;21738;-86
2021/03/17 12:54:35;;;;;;;38.80;28.98;;;;;;;7.63;100.00;99725.22;1777934;79;21186;-86
2021/03/17 12:57:10;;;;;;;38.55;28.07;;;;;;;7.57;100.00;99727.33;1796849;79;21107;-86
2021/03/17 13:00:12;;;;;;;43.15;29.02;;;;;;;7.58;100.00;99729.46;1809685;79;21154;-85
2021/03/17 13:03:11;;;;;;;41.00;27.25;;;;;;;7.64;100.00;99728.17;1809636;79;22393;-86
2021/03/17 13:05:46;;;;;;;40.50;28.87;;;;;;;7.69;100.00;99726.85;1798704;79;21811;-85
2021/03/17 13:11:41;;;;;;;38.92;27.10;;;;;;;7.68;100.00;99719.20;1767044;81;21167;-86
2021/03/17 13:17:36;;;;;;;41.80;27.73;;;;;;;7.59;100.00;99716.87;1767055;80;21360;-85
2021/03/17 13:20:11;;;;;;;47.20;28.77;;;;;;;7.55;100.00;99716.73;1766982;81;21147;-85
2021/03/17 13:22:41;;;;;;;49.05;32.75;;;;;;;7.55;100.00;99715.44;1745669;81;21131;-86
2021/03/17 13:25:13;;;;;;;46.83;30.90;;;;;;;7.55;100.00;99714.14;1759568;81;21839;-86
2021/03/17 13:28:15;;;;;;;48.63;31.70;;;;;;;7.56;100.00;99717.09;1764826;79;21219;-86
2021/03/17 13:30:49;;;;;;;37.83;28.42;;;;;;;7.55;100.00;99714.14;1757175;80;21195;-86
2021/03/17 13:33:18;;;;;;;40.90;27.85;;;;;;;7.56;100.00;99715.80;1745105;81;21186;-86
2021/03/17 13:35:47;;;;;;;42.17;28.12;;;;;;;7.52;100.00;99708.73;1766919;81;21157;-86
2021/03/17 13:38:16;;;;;;;43.23;29.55;;;;;;;7.51;100.00;99708.86;1768289;79;21155;-87
2021/03/17 13:40:47;;;;;;;45.40;28.55;;;;;;;7.48;100.00;99707.33;1785905;79;21194;-86
2021/03/17 13:43:22;;;;;;;46.33;31.10;;;;;;;7.47;100.00;99710.02;1750492;80;21200;-86
2021/03/17 13:45:50;;;;;;;48.80;31.52;;;;;;;7.42;100.00;99703.89;1744782;82;21170;-87
2021/03/17 13:48:22;;;;;;;47.10;29.98;;;;;;;7.41;100.00;99704.86;1745091;82;21187;-86
2021/03/17 13:50:51;;;;;;;37.67;27.52;;;;;;;7.40;100.00;99707.09;1766957;80;21532;-86
2021/03/17 13:53:49;;;;;;;38.42;26.80;;;;;;;7.39;100.00;99710.14;1775730;80;21497;-86
2021/03/17 13:56:23;;;;;;;39.18;28.35;;;;;;;7.37;100.00;99704.72;1752552;79;21362;-86
2021/03/17 13:58:52;;;;;;;38.63;29.42;;;;;;;7.40;100.00;99703.20;1775706;80;21571;-86
2021/03/17 14:01:20;;;;;;;42.85;27.93;;;;;;;7.41;100.00;99698.39;1753493;81;21165;-87
2021/03/17 14:03:48;;;;;;;35.75;25.52;;;;;;;7.40;100.00;99704.50;1742861;81;21132;-87
2021/03/17 14:06:44;;;;;;;36.20;26.30;;;;;;;7.40;100.00;99699.32;1756200;80;21212;-87
2021/03/17 14:09:20;;;;;;;48.70;27.65;;;;;;;7.41;100.00;99704.86;1773171;80;21459;-85
2021/03/17 14:11:49;;;;;;;38.75;28.25;;;;;;;7.40;100.00;99704.50;1756793;80;21149;-86
2021/03/17 14:14:22;;;;;;;39.67;28.17;;;;;;;7.41;100.00;99703.56;1778498;80;21183;-84
2021/03/17 14:16:56;;;;;;;38.42;26.97;;;;;;;7.41;100.00;99707.45;1759418;79;21523;-85
2021/03/17 14:19:25;;;;;;;37.83;26.37;;;;;;;7.38;100.00;99708.97;1761411;80;21159;-86
2021/03/17 14:21:56;;;;;;;34.83;26.15;;;;;;;7.35;100.00;99717.80;1755467;80;21236;-86
2021/03/17 14:24:31;;;;;;;42.88;29.35;;;;;;;7.33;100.00;99717.09;1755292;80;21178;-86
2021/03/17 14:27:00;;;;;;;46.35;32.45;;;;;;;7.33;100.00;99718.86;1774762;80;21115;-85
2021/03/17 14:29:28;;;;;;;39.58;28.00;;;;;;;7.31;100.00;99717.66;1756799;79;21131;-86
2021/03/17 14:31:56;;;;;;;39.18;25.85;;;;;;;7.31;100.00;99720.73;1768556;80;21115;-86
2021/03/17 14:34:24;;;;;;;36.25;25.32;;;;;;;7.28;100.00;99720.50;1747619;80;21419;-87
2021/03/17 14:36:54;;;;;;;36.28;26.12;;;;;;;7.27;100.00;99721.44;1730862;81;21127;-86
2021/03/17 14:39:24;;;;;;;38.65;28.02;;;;;;;7.25;100.00;99720.24;1756147;81;21638;-85
2021/03/17 14:41:52;;;;;;;39.45;26.15;;;;;;;7.23;100.00;99718.72;1725940;82;21577;-86
2021/03/17 14:44:31;;;;;;;36.10;26.57;;;;;;;7.20;100.00;99714.59;1761142;80;21174;-86
2021/03/17 14:47:00;;;;;;;37.13;26.27;;;;;;;7.17;100.00;99725.17;1749566;80;21221;-87
2021/03/17 14:49:28;;;;;;;35.70;25.80;;;;;;;7.15;100.00;99723.19;1747574;82;21146;-87
2021/03/17 14:51:56;;;;;;;34.45;26.02;;;;;;;7.16;100.00;99727.89;1774607;80;21107;-86
2021/03/17 14:54:27;;;;;;;33.88;25.75;;;;;;;7.14;100.00;99722.83;1792392;79;21084;-86
2021/03/17 14:56:56;;;;;;;39.95;28.35;;;;;;;7.10;100.00;99727.42;1802936;78;21166;-86
2021/03/17 14:59:24;;;;;;;37.63;27.00;;;;;;;7.08;100.00;99731.06;1777575;80;21321;-85
2021/03/17 15:01:54;;;;;;;37.58;28.00;;;;;;;7.06;100.00;99736.34;1750794;80;21147;-86
2021/03/17 15:04:24;;;;;;;36.40;26.68;;;;;;;7.04;100.00;99739.53;1774741;80;21153;-86
2021/03/17 15:06:53;;;;;;;39.00;27.90;;;;;;;7.06;100.00;99747.17;1732601;82;21146;-86
2021/03/17 15:09:24;;;;;;;37.60;28.45;;;;;;;7.03;100.00;99734.45;1764639;80;21155;-86
2021/03/17 15:11:52;;;;;;;44.10;32.23;;;;;;;7.03;100.00;99738.33;1764590;81;21351;-86
2021/03/17 15:14:24;;;;;;;44.48;28.75;;;;;;;7.02;100.00;99738.81;1760347;80;21118;-88
2021/03/17 15:21:12;;;;;;;;;;;;;;;6.99;100.00;99742.09;1735033;82;21413;-87
2021/03/17 15:23:40;;;;;;;37.45;29.82;;;;;;;6.94;100.00;99742.44;1739947;81;20237;-86
2021/03/17 15:26:12;;;;;;;49.67;36.98;;;;;;;6.91;100.00;99747.38;1721916;82;22053;-86
2021/03/17 15:28:48;;;;;;;51.70;34.25;;;;;;;6.87;100.00;99744.64;1767922;80;21236;-88
2021/03/17 15:31:18;;;;;;;48.73;35.38;;;;;;;6.83;100.00;99744.52;1767313;81;21154;-86
2021/03/17 15:33:50;;;;;;;54.27;38.28;;;;;;;6.77;100.00;99743.69;1710450;80;21162;-87
2021/03/17 15:36:21;;;;;;;48.73;35.20;;;;;;;6.72;100.00;99746.61;1741671;81;21178;-87
2021/03/17 15:38:51;;;;;;;45.63;32.73;;;;;;;6.69;100.00;99744.71;1735064;81;22364;-87
2021/03/17 15:41:23;;;;;;;43.60;32.10;;;;;;;6.65;100.00;99749.73;1777442;79;21116;-87
2021/03/17 15:43:53;;;;;;;44.85;33.15;;;;;;;6.59;100.00;99744.53;1736819;80;21159;-87
2021/03/17 15:46:24;;;;;;;51.77;35.28;;;;;;;6.53;100.00;99753.55;1766491;79;21139;-87
2021/03/17 15:48:54;;;;;;;49.08;31.68;;;;;;;6.49;100.00;99759.09;1720708;81;21113;-87
2021/03/17 15:51:22;;;;;;;46.10;32.70;;;;;;;6.46;100.00;99770.45;1708097;82;21214;-87
2021/03/17 15:53:59;;;;;;;52.33;34.40;;;;;;;6.45;100.00;99762.33;1710202;82;21128;-87
2021/03/17 15:56:28;;;;;;;46.08;34.65;;;;;;;6.41;100.00;99765.61;1737367;82;21159;-87
2021/03/17 15:58:57;;;;;;;50.03;34.33;;;;;;;6.38;100.00;99763.70;1736757;82;21143;-87
2021/03/17 16:01:31;;;;;;;47.62;33.02;;;;;;;6.36;100.00;99772.06;1734516;82;21643;-87
2021/03/17 16:03:59;;;;;;;58.08;34.38;;;;;;;6.31;100.00;99768.51;1731097;82;21374;-87
2021/03/17 16:10:52;;;;;;;52.60;36.58;;;;;;;6.24;100.00;99775.86;1760015;80;21152;-87
2021/03/17 16:13:56;;;;;;;51.00;33.93;;;;;;;6.15;100.00;99780.37;1771186;79;21068;-87
2021/03/17 16:16:54;;;;;;;43.00;32.28;;;;;;;6.09;100.00;99782.92;1753688;80;21125;-86
2021/03/17 16:19:30;;;;;;;51.90;36.50;;;;;;;6.04;100.00;99785.48;1749804;80;21343;-87
2021/03/17 16:21:58;;;;;;;62.53;40.83;;;;;;;6.00;100.00;99794.73;1772097;79;21609;-86
2021/03/17 16:24:33;;;;;;;58.45;40.48;;;;;;;5.96;100.00;99794.57;1753914;80;21147;-86
2021/03/17 16:27:03;;;;;;;60.52;39.40;;;;;;;5.90;100.00;99798.03;1763213;80;21123;-86
2021/03/17 16:29:31;;;;;;;54.25;38.40;;;;;;;5.84;100.00;99800.11;1739683;81;21122;-86
2021/03/17 16:32:08;;;;;;;52.05;36.23;;;;;;;5.80;100.00;99797.84;1748969;80;21420;-86
2021/03/17 16:35:05;;;;;;;54.60;38.50;;;;;;;5.78;100.00;99803.57;1744780;82;21195;-86
2021/03/17 16:38:05;;;;;;;59.18;39.25;;;;;;;5.71;100.00;99806.22;1766794;81;21108;-86
2021/03/17 16:40:35;;;;;;;54.98;37.60;;;;;;;5.64;100.00;99805.34;1735651;81;21145;-85
2021/03/17 16:43:08;;;;;;;55.90;36.90;;;;;;;5.62;100.00;99802.03;1775874;80;21548;-86
2021/03/17 16:46:13;;;;;;;52.50;35.20;;;;;;;5.61;100.00;99800.84;1775498;80;21155;-85
2021/03/17 16:48:43;;;;;;;50.00;35.60;;;;;;;5.58;100.00;99803.63;1743383;82;21572;-86
2021/03/17 16:51:17;;;;;;;60.92;39.48;;;;;;;5.52;100.00;99804.86;1720983;81;21197;-86
2021/03/17 16:54:15;;;;;;;56.92;41.00;;;;;;;5.48;100.00;99809.41;1748307;80;21163;-87
2021/03/17 16:56:45;;;;;;;57.73;39.85;;;;;;;5.43;100.00;99807.60;1745861;81;21140;-86
2021/03/17 16:59:14;;;;;;;59.63;38.80;;;;;;;5.37;100.00;99815.73;1755828;80;22352;-86
2021/03/17 17:02:09;;;;;;;53.68;36.88;;;;;;;5.34;100.00;99809.02;1766924;81;21103;-86